Time;durP1;ratioP1;P1;durP2;ratioP2;P2;SDS_P1;SDS_P2;PMS_P1;PMS_P2;Temp;Humidity;BMP_temperature;BMP_pressure;BME280_temperature;BME280_humidity;BME280_pressure;Samples;Min_cycle;Max_cycle;Signal;HPM_P1;HPM_P2
2022/11/19 00:01:44;;;;;;;;;;;8.40;90.60;;;;;;5054240;28;20010;-90
2022/11/19 00:04:10;;;;;;;;;;;8.40;91.00;;;;;;5054229;28;19943;-90
2022/11/19 00:06:35;;;;;;;;;;;8.40;91.40;;;;;;5054131;28;19982;-90
2022/11/19 00:09:03;;;;;;;;;;;8.40;91.70;;;;;;5054063;28;20031;-90
2022/11/19 00:14:13;;;;;;;;;;;8.30;92.30;;;;;;5054047;28;20446;-90
2022/11/19 00:16:39;;;;;;;;;;;8.20;93.20;;;;;;5053856;28;19939;-90
2022/11/19 00:19:05;;;;;;;;;;;8.20;93.20;;;;;;5053865;28;19957;-91
2022/11/19 00:21:30;;;;;;;;;;;8.20;93.00;;;;;;5053901;28;19994;-90
2022/11/19 00:23:56;;;;;;;;;;;8.30;92.80;;;;;;5053825;28;20362;-90
2022/11/19 00:26:22;;;;;;;;;;;8.30;92.30;;;;;;5053790;28;19940;-90
2022/11/19 00:28:48;;;;;;;;;;;8.30;92.00;;;;;;5052488;28;20032;-90
2022/11/19 00:31:14;;;;;;;;;;;8.20;91.90;;;;;;5053757;28;20038;-90
2022/11/19 00:33:40;;;;;;;;;;;8.20;92.10;;;;;;5053716;28;19949;-90
2022/11/19 00:36:07;;;;;;;;;;;8.20;92.10;;;;;;5053649;28;19941;-90
2022/11/19 00:38:33;;;;;;;;;;;8.20;92.20;;;;;;5053571;28;19956;-90
2022/11/19 00:40:58;;;;;;;;;;;8.20;92.30;;;;;;5053587;28;20039;-91
2022/11/19 00:46:08;;;;;;;;;;;8.10;91.80;;;;;;5053755;28;19944;-90
2022/11/19 00:48:34;;;;;;;;;;;8.10;92.10;;;;;;5052162;28;19943;-90
2022/11/19 00:51:00;;;;;;;;;;;8.10;92.30;;;;;;5053435;28;20309;-90
2022/11/19 00:53:25;;;;;;;;;;;8.10;92.60;;;;;;5053037;28;19989;-90
2022/11/19 00:55:51;;;;;;;;;;;8.20;92.80;;;;;;5053286;28;19992;-90
2022/11/19 00:58:18;;;;;;;;;;;8.30;93.00;;;;;;5053170;28;20020;-90
2022/11/19 01:00:43;;;;;;;;;;;8.30;93.00;;;;;;5053480;28;19950;-90
2022/11/19 01:03:09;;;;;;;;;;;8.30;93.10;;;;;;5053245;28;19944;-90
2022/11/19 01:05:35;;;;;;;;;;;8.40;93.00;;;;;;5053146;28;19962;-90
2022/11/19 01:08:00;;;;;;;;;;;8.40;92.60;;;;;;5053164;28;19989;-90
2022/11/19 01:10:26;;;;;;;;;;;8.30;91.90;;;;;;5053115;28;19938;-90
2022/11/19 01:13:51;;;;;;;;;;;8.30;91.80;;;;;;5053076;28;20291;-90
2022/11/19 01:15:47;;;;;;;;;;;8.30;91.40;;;;;;5039663;28;19994;-90
2022/11/19 01:18:12;;;;;;;;;;;8.30;91.10;;;;;;5052968;28;19962;-90
2022/11/19 01:20:38;;;;;;;;;;;8.20;91.20;;;;;;5053004;28;20009;-90
2022/11/19 01:23:03;;;;;;;;;;;8.20;90.90;;;;;;5052948;28;20180;-90
2022/11/19 01:25:29;;;;;;;;;;;8.10;90.80;;;;;;5052951;28;19963;-90
2022/11/19 01:27:56;;;;;;;;;;;8.00;90.60;;;;;;5053216;28;19943;-90
2022/11/19 01:30:22;;;;;;;;;;;8.00;90.50;;;;;;5056971;28;19946;-90
2022/11/19 01:32:47;;;;;;;;;;;8.00;91.00;;;;;;5057023;28;19943;-90
2022/11/19 01:35:13;;;;;;;;;;;8.00;90.80;;;;;;5057007;28;19949;-90
2022/11/19 01:37:38;;;;;;;;;;;8.00;90.90;;;;;;5056952;28;19946;-91
2022/11/19 01:40:04;;;;;;;;;;;8.10;91.00;;;;;;5056460;28;19968;-90
2022/11/19 01:42:49;;;;;;;;;;;8.10;91.20;;;;;;5056916;28;19940;-90
2022/11/19 01:45:24;;;;;;;;;;;8.10;91.30;;;;;;5055556;28;19952;-90
2022/11/19 01:47:50;;;;;;;;;;;8.20;91.60;;;;;;5055551;28;20423;-90
2022/11/19 01:50:16;;;;;;;;;;;8.30;91.40;;;;;;5056774;28;19937;-91
2022/11/19 01:52:42;;;;;;;;;;;8.10;91.20;;;;;;5056419;28;19980;-91
2022/11/19 01:55:08;;;;;;;;;;;8.10;90.90;;;;;;5056730;28;20296;-90
2022/11/19 01:57:36;;;;;;;;;;;8.10;90.30;;;;;;5056626;28;19944;-90
2022/11/19 02:00:02;;;;;;;;;;;8.10;90.10;;;;;;5056515;28;19957;-90
2022/11/19 02:02:28;;;;;;;;;;;8.20;89.80;;;;;;5056555;28;19936;-90
2022/11/19 02:04:56;;;;;;;;;;;8.30;89.30;;;;;;5056529;28;20418;-90
2022/11/19 02:07:27;;;;;;;;;;;8.30;89.40;;;;;;5056454;28;19991;-90
2022/11/19 02:10:01;;;;;;;;;;;8.20;89.10;;;;;;5055134;28;20011;-90
2022/11/19 02:12:46;;;;;;;;;;;8.20;89.20;;;;;;5056368;28;19938;-90
2022/11/19 02:15:15;;;;;;;;;;;8.10;89.20;;;;;;5056310;28;19938;-90
2022/11/19 02:17:40;;;;;;;;;;;8.10;89.30;;;;;;5056247;28;19943;-90
2022/11/19 02:20:18;;;;;;;;;;;8.10;89.10;;;;;;5056109;28;19983;-90
2022/11/19 02:22:49;;;;;;;;;;;8.10;89.40;;;;;;5056173;28;19948;-90
2022/11/19 02:25:32;;;;;;;;;;;8.20;90.10;;;;;;5056172;28;19961;-90
2022/11/19 02:28:04;;;;;;;;;;;8.20;90.00;;;;;;5056113;28;19976;-90
2022/11/19 02:30:35;;;;;;;;;;;8.20;90.00;;;;;;5056017;28;20043;-90
2022/11/19 02:33:00;;;;;;;;;;;8.10;89.60;;;;;;5056014;28;20025;-90
2022/11/19 02:35:29;;;;;;;;;;;8.10;89.60;;;;;;5055969;28;19981;-91
2022/11/19 02:38:12;;;;;;;;;;;8.10;89.10;;;;;;5054548;28;19946;-90
2022/11/19 02:40:40;;;;;;;;;;;8.10;89.30;;;;;;5054505;28;19991;-90
2022/11/19 02:43:24;;;;;;;;;;;8.00;89.10;;;;;;5055812;28;19941;-90
2022/11/19 02:45:56;;;;;;;;;;;8.10;89.20;;;;;;5054442;28;19952;-90
2022/11/19 02:48:23;;;;;;;;;;;8.00;89.00;;;;;;5055711;28;19946;-89
2022/11/19 02:50:53;;;;;;;;;;;8.00;88.50;;;;;;5055711;28;19938;-91
2022/11/19 02:53:18;;;;;;;;;;;8.00;88.80;;;;;;5055294;28;19980;-90
2022/11/19 02:56:09;;;;;;;;;;;8.10;89.10;;;;;;5055481;28;19944;-90
2022/11/19 03:06:45;;;;;;;;;;;7.90;88.70;;;;;;5068791;28;19988;-90
2022/11/19 03:09:11;;;;;;;;;;;7.90;89.00;;;;;;5055324;28;19944;-90
2022/11/19 03:11:36;;;;;;;;;;;7.90;89.10;;;;;;5055234;28;19945;-90
2022/11/19 03:16:57;;;;;;;;;;;8.00;89.10;;;;;;5055496;28;19949;-90
2022/11/19 03:19:25;;;;;;;;;;;8.10;89.10;;;;;;5055212;28;19966;-90
2022/11/19 03:21:53;;;;;;;;;;;8.10;89.00;;;;;;5055064;28;20031;-90
2022/11/19 03:24:31;;;;;;;;;;;8.10;89.60;;;;;;5055050;28;20382;-90
2022/11/19 03:26:59;;;;;;;;;;;8.10;89.50;;;;;;5054973;28;19943;-90
2022/11/19 03:29:26;;;;;;;;;;;8.10;89.60;;;;;;5054927;28;19999;-90
2022/11/19 03:31:57;;;;;;;;;;;8.10;89.30;;;;;;5054845;28;19944;-90
2022/11/19 03:34:23;;;;;;;;;;;8.10;89.10;;;;;;5054898;28;19991;-90
2022/11/19 03:36:52;;;;;;;;;;;8.20;89.50;;;;;;5054791;28;19944;-90
2022/11/19 03:39:18;;;;;;;;;;;8.20;89.60;;;;;;5054634;28;19958;-90
2022/11/19 03:41:45;;;;;;;;;;;8.10;89.20;;;;;;5054656;28;20316;-90
2022/11/19 03:44:14;;;;;;;;;;;8.00;89.00;;;;;;5054636;28;20389;-90
2022/11/19 03:46:41;;;;;;;;;;;7.90;88.90;;;;;;5054635;28;19983;-90
2022/11/19 03:49:08;;;;;;;;;;;7.80;89.50;;;;;;5053291;28;19943;-90
2022/11/19 03:51:33;;;;;;;;;;;7.90;90.10;;;;;;5054052;28;20025;-90
2022/11/19 03:53:59;;;;;;;;;;;7.90;90.40;;;;;;5054152;28;20080;-90
2022/11/19 03:56:26;;;;;;;;;;;7.80;90.20;;;;;;5054428;28;19954;-90
2022/11/19 03:58:52;;;;;;;;;;;7.80;90.10;;;;;;5054508;28;19966;-90
2022/11/19 04:01:17;;;;;;;;;;;7.80;90.30;;;;;;5054338;28;20020;-90
2022/11/19 04:04:34;;;;;;;;;;;7.80;90.30;;;;;;5054316;28;19951;-90
2022/11/19 04:06:28;;;;;;;;;;;7.80;90.10;;;;;;5054064;28;20395;-90
2022/11/19 04:08:54;;;;;;;;;;;7.90;90.00;;;;;;5054156;28;19952;-90
2022/11/19 04:11:19;;;;;;;;;;;7.90;89.30;;;;;;5054354;28;19949;-90
2022/11/19 04:13:45;;;;;;;;;;;7.90;89.10;;;;;;5054065;28;19975;-90
2022/11/19 04:16:10;;;;;;;;;;;7.80;89.60;;;;;;5054083;28;20366;-90
2022/11/19 04:18:36;;;;;;;;;;;7.80;89.50;;;;;;5052660;28;20400;-90
2022/11/19 04:21:01;;;;;;;;;;;7.70;89.40;;;;;;5053942;28;20330;-90
2022/11/19 04:23:27;;;;;;;;;;;7.60;89.40;;;;;;5053888;28;19998;-90
2022/11/19 04:25:52;;;;;;;;;;;7.60;89.10;;;;;;5053857;28;19990;-89
2022/11/19 04:28:18;;;;;;;;;;;7.60;88.90;;;;;;5053807;28;19946;-90
2022/11/19 04:30:44;;;;;;;;;;;7.60;88.60;;;;;;5053769;28;19972;-90
2022/11/19 04:33:09;;;;;;;;;;;7.50;88.80;;;;;;5053760;28;20342;-90
2022/11/19 04:35:35;;;;;;;;;;;7.50;88.30;;;;;;5053702;28;20377;-90
2022/11/19 04:38:00;;;;;;;;;;;7.50;88.60;;;;;;5053567;28;19980;-90
2022/11/19 04:40:26;;;;;;;;;;;7.50;89.00;;;;;;5053595;28;19979;-90
2022/11/19 04:42:51;;;;;;;;;;;7.50;89.30;;;;;;5053573;28;19964;-90
2022/11/19 04:45:17;;;;;;;;;;;7.50;89.20;;;;;;5053569;28;20411;-90
2022/11/19 04:47:42;;;;;;;;;;;7.50;89.20;;;;;;5053489;28;19941;-90
2022/11/19 04:50:08;;;;;;;;;;;7.50;89.20;;;;;;5052147;28;20319;-90
2022/11/19 04:52:33;;;;;;;;;;;7.50;88.80;;;;;;5053161;28;19966;-90
2022/11/19 04:54:59;;;;;;;;;;;7.40;88.60;;;;;;5053423;28;19944;-90
2022/11/19 04:57:24;;;;;;;;;;;7.40;88.60;;;;;;5053318;28;19942;-90
2022/11/19 04:59:50;;;;;;;;;;;7.20;88.00;;;;;;5053255;28;19944;-90
2022/11/19 05:02:15;;;;;;;;;;;7.30;88.40;;;;;;5053274;28;20036;-90
2022/11/19 05:04:41;;;;;;;;;;;7.30;88.80;;;;;;5052532;28;19981;-90
2022/11/19 05:07:06;;;;;;;;;;;7.30;89.00;;;;;;5053188;28;20035;-90
2022/11/19 05:09:32;;;;;;;;;;;7.20;89.20;;;;;;5053211;28;19977;-90
2022/11/19 05:11:57;;;;;;;;;;;7.20;89.30;;;;;;5053153;28;19945;-90
2022/11/19 05:14:23;;;;;;;;;;;7.10;89.50;;;;;;5053133;28;19937;-90
2022/11/19 05:16:48;;;;;;;;;;;7.00;89.80;;;;;;5053116;28;19960;-90
2022/11/19 05:19:14;;;;;;;;;;;7.00;90.00;;;;;;5053004;28;19965;-90
2022/11/19 05:21:39;;;;;;;;;;;7.10;90.10;;;;;;5053108;28;19943;-90
2022/11/19 05:24:05;;;;;;;;;;;7.10;90.10;;;;;;5053021;28;20413;-90
2022/11/19 05:26:31;;;;;;;;;;;7.20;90.60;;;;;;5052997;28;20386;-90
2022/11/19 05:28:56;;;;;;;;;;;7.30;90.40;;;;;;5052979;28;19991;-90
2022/11/19 05:31:22;;;;;;;;;;;7.30;90.00;;;;;;5052973;28;19993;-90
2022/11/19 05:33:47;;;;;;;;;;;7.30;89.80;;;;;;5052941;28;19941;-90
2022/11/19 05:36:13;;;;;;;;;;;7.30;89.30;;;;;;5052917;28;19945;-90
2022/11/19 05:38:39;;;;;;;;;;;7.20;89.00;;;;;;5052834;28;19961;-90
2022/11/19 05:41:05;;;;;;;;;;;7.00;88.60;;;;;;5053111;28;19939;-90
2022/11/19 05:43:31;;;;;;;;;;;6.90;88.60;;;;;;5052852;28;20031;-90
2022/11/19 05:46:00;;;;;;;;;;;6.90;88.60;;;;;;5047316;28;19937;-90
2022/11/19 05:48:25;;;;;;;;;;;6.90;88.70;;;;;;5045835;28;19952;-90
2022/11/19 05:50:51;;;;;;;;;;;6.80;88.80;;;;;;5052796;28;20391;-89
2022/11/19 05:53:16;;;;;;;;;;;6.80;89.10;;;;;;5059218;23;20031;-89
2022/11/19 05:55:42;;;;;;;;;;;6.90;89.40;;;;;;5052705;28;19941;-90
2022/11/19 05:58:07;;;;;;;;;;;6.80;89.00;;;;;;5052635;28;20305;-90
2022/11/19 06:00:33;;;;;;;;;;;6.80;89.30;;;;;;5052664;28;20035;-90
2022/11/19 06:02:58;;;;;;;;;;;6.80;89.50;;;;;;5052617;28;19945;-90
2022/11/19 06:05:24;;;;;;;;;;;6.90;89.90;;;;;;5067997;28;19951;-90
2022/11/19 06:07:49;;;;;;;;;;;6.90;90.20;;;;;;5051520;28;19941;-90
2022/11/19 06:10:15;;;;;;;;;;;6.90;90.30;;;;;;5052039;28;19955;-90
2022/11/19 06:12:42;;;;;;;;;;;6.90;90.50;;;;;;5052148;28;19950;-90
2022/11/19 06:15:08;;;;;;;;;;;6.90;90.80;;;;;;5052791;28;19942;-90
2022/11/19 06:17:34;;;;;;;;;;;6.90;90.80;;;;;;5055649;28;19948;-90
2022/11/19 06:20:00;;;;;;;;;;;6.80;90.90;;;;;;5054464;28;20401;-90
2022/11/19 06:22:25;;;;;;;;;;;6.80;91.10;;;;;;5050528;28;20112;-90
2022/11/19 06:24:51;;;;;;;;;;;6.80;91.10;;;;;;5055642;28;19954;-90
2022/11/19 06:27:16;;;;;;;;;;;6.80;91.30;;;;;;5055471;28;20418;-90
2022/11/19 06:29:42;;;;;;;;;;;6.70;91.30;;;;;;5055268;28;20399;-90
2022/11/19 06:32:08;;;;;;;;;;;6.60;91.20;;;;;;5055894;28;20016;-91
2022/11/19 06:34:33;;;;;;;;;;;6.60;91.60;;;;;;5053186;28;20352;-90
2022/11/19 06:36:59;;;;;;;;;;;6.90;92.20;;;;;;5054004;28;20616;-89
2022/11/19 06:39:24;;;;;;;;;;;7.10;92.10;;;;;;5054480;28;20050;-89
2022/11/19 06:41:50;;;;;;;;;;;7.40;92.10;;;;;;5054565;28;19987;-90
2022/11/19 06:44:15;;;;;;;;;;;7.60;91.90;;;;;;5055547;28;20116;-90
2022/11/19 06:46:41;;;;;;;;;;;7.80;91.10;;;;;;5055379;28;20363;-90
2022/11/19 06:49:07;;;;;;;;;;;8.00;90.70;;;;;;5055273;28;19947;-90
2022/11/19 06:51:33;;;;;;;;;;;8.20;89.50;;;;;;5055415;28;20312;-89
2022/11/19 06:53:58;;;;;;;;;;;8.30;88.80;;;;;;5030255;28;19976;-90
2022/11/19 18:33:34;;;;;;;;;;;11.30;77.40;;;;;;5111420;27;19944;-91
2022/11/19 18:35:59;;;;;;;;;;;11.30;77.20;;;;;;5109696;28;20439;-88
2022/11/19 18:38:25;;;;;;;;;;;11.40;76.70;;;;;;5110104;28;20041;-89
2022/11/19 18:40:50;;;;;;;;;;;11.40;76.40;;;;;;5106649;28;19944;-89
2022/11/19 18:45:41;;;;;;;;;;;11.40;76.40;;;;;;5109654;27;19951;-89
2022/11/19 18:48:06;;;;;;;;;;;11.40;76.40;;;;;;5109626;28;20284;-89
2022/11/19 18:50:32;;;;;;;;;;;11.30;76.80;;;;;;5109605;28;19944;-89
2022/11/19 18:52:57;;;;;;;;;;;11.30;76.90;;;;;;5093328;28;20276;-89
2022/11/19 18:55:23;;;;;;;;;;;11.30;77.30;;;;;;5077385;28;19942;-89
2022/11/19 18:57:49;;;;;;;;;;;11.20;77.20;;;;;;5077799;28;19939;-89
2022/11/19 19:00:14;;;;;;;;;;;11.10;77.40;;;;;;5079403;28;19934;-89
2022/11/19 19:02:40;;;;;;;;;;;11.10;77.60;;;;;;5072480;28;19949;-89
2022/11/19 19:05:06;;;;;;;;;;;11.00;77.70;;;;;;5070086;28;19960;-89
2022/11/19 19:07:31;;;;;;;;;;;11.00;77.90;;;;;;5070321;28;19944;-89
2022/11/19 19:09:57;;;;;;;;;;;10.90;78.30;;;;;;5070080;28;19941;-89
2022/11/19 19:12:23;;;;;;;;;;;10.90;78.20;;;;;;5070055;28;19987;-89
2022/11/19 19:14:52;;;;;;;;;;;10.90;78.60;;;;;;5069929;28;19943;-89
2022/11/19 19:17:17;;;;;;;;;;;10.90;78.50;;;;;;5069911;28;19980;-89
2022/11/19 19:20:44;;;;;;;;;;;10.90;78.20;;;;;;5101849;27;2022196;-89
2022/11/19 19:23:09;;;;;;;;;;;11.00;78.10;;;;;;5173044;27;20396;-89
2022/11/19 19:25:35;;;;;;;;;;;10.90;78.20;;;;;;5173013;27;19989;-89
2022/11/19 19:29:24;;;;;;;;;;;11.00;77.90;;;;;;5110898;27;20297;-89
2022/11/19 19:31:50;;;;;;;;;;;11.00;77.90;;;;;;5110887;28;20461;-90
2022/11/19 19:34:15;;;;;;;;;;;10.90;78.40;;;;;;5110938;28;19945;-89
2022/11/19 19:36:41;;;;;;;;;;;10.90;78.60;;;;;;5111172;28;19946;-88
2022/11/19 19:39:06;;;;;;;;;;;10.80;78.70;;;;;;5110604;28;20393;-89
2022/11/19 19:41:32;;;;;;;;;;;10.80;78.70;;;;;;5110799;28;20456;-89
2022/11/19 19:43:59;;;;;;;;;;;10.80;79.30;;;;;;5110761;28;20295;-89
2022/11/19 19:46:25;;;;;;;;;;;10.70;80.00;;;;;;5110716;28;19967;-89
2022/11/19 19:48:51;;;;;;;;;;;10.70;79.90;;;;;;5110870;28;20407;-89
2022/11/19 19:51:17;;;;;;;;;;;10.60;79.70;;;;;;5110900;28;19944;-89
2022/11/19 19:53:43;;;;;;;;;;;10.60;79.70;;;;;;5111713;28;20430;-89
2022/11/19 19:56:10;;;;;;;;;;;10.50;80.10;;;;;;5110564;28;19964;-89
2022/11/19 19:58:39;;;;;;;;;;;10.40;81.00;;;;;;5110478;28;20031;-89
2022/11/19 20:01:05;;;;;;;;;;;10.40;81.90;;;;;;5110444;28;19992;-90
2022/11/19 20:03:31;;;;;;;;;;;10.40;82.20;;;;;;5110685;28;19942;-90
2022/11/19 20:05:57;;;;;;;;;;;10.40;82.10;;;;;;5110689;28;20310;-89
2022/11/19 20:08:22;;;;;;;;;;;10.40;81.90;;;;;;5110298;28;20483;-89
2022/11/19 20:10:48;;;;;;;;;;;10.40;81.60;;;;;;5110242;28;19948;-89
2022/11/19 20:16:09;;;;;;;;;;;10.30;81.10;;;;;;5105083;28;19947;-89
2022/11/19 20:18:36;;;;;;;;;;;10.30;81.00;;;;;;5110090;28;20021;-90
2022/11/19 20:21:02;;;;;;;;;;;10.40;81.80;;;;;;5110077;28;19937;-89
2022/11/19 20:23:28;;;;;;;;;;;10.30;82.00;;;;;;5110011;28;19943;-89
2022/11/19 20:26:01;;;;;;;;;;;10.30;81.90;;;;;;5110228;28;19942;-90
2022/11/19 20:28:27;;;;;;;;;;;10.20;82.10;;;;;;5109643;28;19977;-89
2022/11/19 20:31:01;;;;;;;;;;;10.10;82.30;;;;;;5109882;28;19939;-90
2022/11/19 20:33:26;;;;;;;;;;;10.10;83.00;;;;;;5109838;28;20028;-90
2022/11/19 20:35:52;;;;;;;;;;;9.90;83.70;;;;;;5109772;28;20023;-89
2022/11/19 20:38:17;;;;;;;;;;;9.90;83.80;;;;;;5109719;28;19945;-89
2022/11/19 20:40:51;;;;;;;;;;;9.90;83.70;;;;;;5095046;28;19950;-89
2022/11/19 20:46:08;;;;;;;;;;;9.90;81.80;;;;;;5096019;28;19995;-89
2022/11/19 20:48:33;;;;;;;;;;;9.90;81.20;;;;;;5095883;28;20424;-90
2022/11/19 20:50:59;;;;;;;;;;;9.90;80.90;;;;;;5095923;28;20051;-89
2022/11/19 20:53:24;;;;;;;;;;;10.00;80.80;;;;;;5095718;28;20002;-90
2022/11/19 20:55:50;;;;;;;;;;;10.00;80.60;;;;;;5095830;28;20041;-90
2022/11/19 20:58:16;;;;;;;;;;;10.00;80.50;;;;;;5095774;28;19993;-89
2022/11/19 21:00:42;;;;;;;;;;;10.10;80.00;;;;;;5095978;28;20432;-89
2022/11/19 21:03:07;;;;;;;;;;;10.20;79.50;;;;;;5095740;28;19944;-90
2022/11/19 21:05:33;;;;;;;;;;;10.20;79.20;;;;;;5095648;28;19939;-89
2022/11/19 21:07:58;;;;;;;;;;;10.20;79.70;;;;;;5095541;28;19968;-90
2022/11/19 21:10:24;;;;;;;;;;;10.20;79.60;;;;;;5095592;28;19935;-90
2022/11/19 21:13:01;;;;;;;;;;;10.10;79.90;;;;;;5095564;28;20186;-90
2022/11/19 21:15:28;;;;;;;;;;;10.20;79.80;;;;;;5095463;28;20484;-89
2022/11/19 21:17:53;;;;;;;;;;;10.10;79.80;;;;;;5095437;28;19952;-89
2022/11/19 21:20:19;;;;;;;;;;;10.20;80.00;;;;;;5095377;28;19939;-89
2022/11/19 21:22:47;;;;;;;;;;;10.10;79.80;;;;;;5095359;28;19945;-89
2022/11/19 21:25:13;;;;;;;;;;;10.30;79.30;;;;;;5095223;28;20400;-90
2022/11/19 21:27:38;;;;;;;;;;;10.30;78.80;;;;;;5094989;28;19984;-89
2022/11/19 21:30:04;;;;;;;;;;;10.20;79.30;;;;;;5095194;28;19938;-90
2022/11/19 21:32:29;;;;;;;;;;;10.20;80.20;;;;;;5095181;28;19966;-90
2022/11/19 21:34:55;;;;;;;;;;;10.10;80.20;;;;;;5095361;28;19944;-89
2022/11/19 21:37:20;;;;;;;;;;;10.00;80.00;;;;;;5095099;28;19940;-90
2022/11/19 21:39:46;;;;;;;;;;;10.00;79.80;;;;;;5095011;28;19939;-90
2022/11/19 21:42:11;;;;;;;;;;;9.90;80.60;;;;;;5095010;28;19943;-90
2022/11/19 21:44:37;;;;;;;;;;;9.90;81.00;;;;;;5094909;28;20075;-89
2022/11/19 21:47:02;;;;;;;;;;;9.90;81.10;;;;;;5094844;28;20034;-90
2022/11/19 21:49:28;;;;;;;;;;;9.80;81.50;;;;;;5093616;28;19953;-90
2022/11/19 21:51:54;;;;;;;;;;;9.80;81.70;;;;;;5092471;28;20347;-89
2022/11/19 21:54:19;;;;;;;;;;;9.80;82.10;;;;;;5094971;28;19943;-89
2022/11/19 21:56:46;;;;;;;;;;;9.70;82.40;;;;;;5094747;28;20454;-89
2022/11/19 21:59:12;;;;;;;;;;;9.80;82.20;;;;;;5094664;28;19941;-89
2022/11/19 22:01:37;;;;;;;;;;;9.70;82.40;;;;;;5093584;28;20030;-89
2022/11/19 22:04:03;;;;;;;;;;;9.70;82.30;;;;;;5094533;28;19940;-89
2022/11/19 22:06:30;;;;;;;;;;;9.70;82.00;;;;;;5094495;28;19945;-89
2022/11/19 22:08:55;;;;;;;;;;;9.70;81.20;;;;;;5094363;28;19962;-89
2022/11/19 22:11:27;;;;;;;;;;;9.70;81.10;;;;;;5094358;28;20026;-89
2022/11/19 22:13:53;;;;;;;;;;;9.70;81.10;;;;;;5094606;28;19944;-89
2022/11/19 22:16:19;;;;;;;;;;;9.60;81.80;;;;;;5093049;28;20299;-89
2022/11/19 22:18:44;;;;;;;;;;;9.50;81.90;;;;;;5094303;28;19938;-89
2022/11/19 22:21:10;;;;;;;;;;;9.50;82.80;;;;;;5094166;28;19955;-89
2022/11/19 22:23:36;;;;;;;;;;;9.50;82.60;;;;;;5094220;28;19955;-89
2022/11/19 22:26:05;;;;;;;;;;;9.50;82.10;;;;;;5094136;28;19951;-89
2022/11/19 22:28:31;;;;;;;;;;;9.60;81.70;;;;;;5093844;28;19974;-89
2022/11/19 22:30:57;;;;;;;;;;;9.60;81.50;;;;;;5094024;28;19940;-89
2022/11/19 22:33:22;;;;;;;;;;;9.70;81.10;;;;;;5093999;28;20305;-89
2022/11/19 22:35:48;;;;;;;;;;;9.70;81.10;;;;;;5093998;28;19946;-89
2022/11/19 22:38:14;;;;;;;;;;;9.70;81.20;;;;;;5093930;28;19944;-89
2022/11/19 22:40:39;;;;;;;;;;;9.70;81.30;;;;;;5093859;28;20030;-89
2022/11/19 22:43:05;;;;;;;;;;;9.60;81.10;;;;;;5093902;28;20467;-89
2022/11/19 22:45:31;;;;;;;;;;;9.70;81.00;;;;;;5093767;28;19937;-89
2022/11/19 22:47:56;;;;;;;;;;;9.70;81.10;;;;;;5093668;28;19974;-89
2022/11/19 22:50:22;;;;;;;;;;;9.70;81.30;;;;;;5093733;28;20296;-89
2022/11/19 22:52:48;;;;;;;;;;;9.60;81.50;;;;;;5093522;28;19987;-89
2022/11/19 22:55:13;;;;;;;;;;;9.70;81.50;;;;;;5092756;28;20299;-89
2022/11/19 22:57:39;;;;;;;;;;;9.70;81.40;;;;;;5093612;28;20378;-89
2022/11/19 23:00:07;;;;;;;;;;;9.70;81.10;;;;;;5093595;28;19938;-89
2022/11/19 23:02:33;;;;;;;;;;;9.70;81.10;;;;;;5093234;28;19941;-89
2022/11/19 23:04:59;;;;;;;;;;;9.60;81.20;;;;;;5093514;28;19970;-89
2022/11/19 23:07:24;;;;;;;;;;;9.50;81.90;;;;;;5093652;28;19965;-89
2022/11/19 23:09:50;;;;;;;;;;;9.40;82.60;;;;;;5093464;28;19935;-89
2022/11/19 23:16:38;;;;;;;;;;;9.30;83.40;;;;;;5110994;27;19947;-90
2022/11/19 23:19:04;;;;;;;;;;;9.30;82.90;;;;;;5110859;28;20395;-89
2022/11/19 23:21:30;;;;;;;;;;;9.30;82.80;;;;;;5110948;28;19991;-89
2022/11/19 23:24:18;;;;;;;;;;;9.30;82.30;;;;;;5152188;27;19942;-89
2022/11/19 23:26:43;;;;;;;;;;;9.30;82.40;;;;;;5152139;27;20418;-89
2022/11/19 23:29:09;;;;;;;;;;;9.20;82.70;;;;;;5152150;27;20448;-89
2022/11/19 23:31:36;;;;;;;;;;;9.10;83.20;;;;;;5152040;27;20406;-89
2022/11/19 23:34:02;;;;;;;;;;;9.00;83.40;;;;;;5152069;27;19976;-89
2022/11/19 23:36:28;;;;;;;;;;;9.00;83.10;;;;;;5152066;27;19952;-88
2022/11/19 23:38:54;;;;;;;;;;;9.00;82.60;;;;;;5151953;27;19943;-90
2022/11/19 23:41:20;;;;;;;;;;;9.00;82.20;;;;;;5133316;27;19945;-89
2022/11/19 23:43:46;;;;;;;;;;;9.10;82.00;;;;;;5152142;27;19959;-89
2022/11/19 23:46:13;;;;;;;;;;;9.10;81.90;;;;;;5151849;27;19933;-89
2022/11/19 23:48:40;;;;;;;;;;;9.00;82.20;;;;;;5151793;27;19946;-89
2022/11/19 23:51:13;;;;;;;;;;;8.90;83.30;;;;;;5151735;27;20047;-89
2022/11/19 23:53:38;;;;;;;;;;;8.90;83.80;;;;;;5133874;27;20462;-90
2022/11/19 23:56:04;;;;;;;;;;;8.80;84.10;;;;;;5130992;28;19940;-89
2022/11/19 23:58:30;;;;;;;;;;;8.90;83.60;;;;;;5130894;28;19935;-89
